sensor_id;sensor_type;location;lat;lon;timestamp;pressure;altitude;pressure_sealevel;temperature;humidity
54270;BME280;40181;51.560;13.000;2023-04-01T00:01:41;98863.56;;;9.08;100.00
54270;BME280;40181;51.560;13.000;2023-04-01T00:04:10;98861.75;;;9.19;100.00
54270;BME280;40181;51.560;13.000;2023-04-01T00:06:39;98852.28;;;8.99;100.00
54270;BME280;40181;51.560;13.000;2023-04-01T00:09:10;98867.09;;;9.07;100.00
54270;BME280;40181;51.560;13.000;2023-04-01T00:11:39;98856.63;;;9.05;100.00
54270;BME280;40181;51.560;13.000;2023-04-01T00:14:10;98860.25;;;8.89;100.00
54270;BME280;40181;51.560;13.000;2023-04-01T00:16:39;98855.75;;;9.05;100.00
54270;BME280;40181;51.560;13.000;2023-04-01T00:19:08;98867.94;;;9.12;100.00
54270;BME280;40181;51.560;13.000;2023-04-01T00:21:37;98852.19;;;9.15;100.00
54270;BME280;40181;51.560;13.000;2023-04-01T00:24:06;98862.66;;;9.15;100.00
54270;BME280;40181;51.560;13.000;2023-04-01T00:26:38;98855.72;;;9.11;100.00
54270;BME280;40181;51.560;13.000;2023-04-01T00:29:07;98864.38;;;9.18;100.00
54270;BME280;40181;51.560;13.000;2023-04-01T00:31:36;98875.75;;;9.17;100.00
54270;BME280;40181;51.560;13.000;2023-04-01T00:34:05;98876.72;;;9.06;100.00
54270;BME280;40181;51.560;13.000;2023-04-01T00:36:34;98872.34;;;9.02;100.00
54270;BME280;40181;51.560;13.000;2023-04-01T00:39:03;98860.97;;;9.09;100.00
54270;BME280;40181;51.560;13.000;2023-04-01T00:41:35;98861.16;;;8.80;100.00
54270;BME280;40181;51.560;13.000;2023-04-01T00:44:17;98866.22;;;9.03;100.00
54270;BME280;40181;51.560;13.000;2023-04-01T00:46:47;98866.22;;;9.03;100.00
54270;BME280;40181;51.560;13.000;2023-04-01T00:49:19;98866.31;;;8.95;100.00
54270;BME280;40181;51.560;13.000;2023-04-01T00:51:51;98871.56;;;8.89;100.00
54270;BME280;40181;51.560;13.000;2023-04-01T00:54:24;98862.88;;;8.85;100.00
54270;BME280;40181;51.560;13.000;2023-04-01T00:56:59;98862.94;;;8.79;100.00
54270;BME280;40181;51.560;13.000;2023-04-01T00:59:33;98869.88;;;8.83;100.00
54270;BME280;40181;51.560;13.000;2023-04-01T01:02:05;98869.09;;;8.66;100.00
54270;BME280;40181;51.560;13.000;2023-04-01T01:04:36;98871.59;;;8.86;100.00
54270;BME280;40181;51.560;13.000;2023-04-01T01:07:14;98868.22;;;8.68;100.00
54270;BME280;40181;51.560;13.000;2023-04-01T01:09:54;98866.34;;;8.91;100.00
54270;BME280;40181;51.560;13.000;2023-04-01T01:12:32;98876.88;;;8.81;100.00
54270;BME280;40181;51.560;13.000;2023-04-01T01:15:11;98871.59;;;8.84;100.00
54270;BME280;40181;51.560;13.000;2023-04-01T01:17:48;98877.69;;;8.86;100.00
54270;BME280;40181;51.560;13.000;2023-04-01T01:23:38;98861.28;;;8.61;100.00
54270;BME280;40181;51.560;13.000;2023-04-01T01:26:36;98862.97;;;8.75;100.00
54270;BME280;40181;51.560;13.000;2023-04-01T01:32:26;98863.72;;;8.89;100.00
54270;BME280;40181;51.560;13.000;2023-04-01T01:35:16;98856.78;;;8.82;100.00
54270;BME280;40181;51.560;13.000;2023-04-01T01:37:54;98850.63;;;8.91;100.00
54270;BME280;40181;51.560;13.000;2023-04-01T01:40:25;98855.94;;;8.80;100.00
54270;BME280;40181;51.560;13.000;2023-04-01T01:42:59;98865.44;;;8.93;100.00
54270;BME280;40181;51.560;13.000;2023-04-01T01:45:32;98861.09;;;8.91;100.00
54270;BME280;40181;51.560;13.000;2023-04-01T01:48:05;98862.06;;;8.74;100.00
54270;BME280;40181;51.560;13.000;2023-04-01T01:50:39;98867.38;;;8.66;100.00
54270;BME280;40181;51.560;13.000;2023-04-01T01:53:12;98862.94;;;8.78;100.00
54270;BME280;40181;51.560;13.000;2023-04-01T01:55:43;98868.16;;;8.79;100.00
54270;BME280;40181;51.560;13.000;2023-04-01T01:58:16;98858.47;;;8.92;100.00
54270;BME280;40181;51.560;13.000;2023-04-01T02:00:50;98866.34;;;8.89;100.00
54270;BME280;40181;51.560;13.000;2023-04-01T02:03:23;98869.81;;;8.91;100.00
54270;BME280;40181;51.560;13.000;2023-04-01T02:05:58;98861.16;;;8.83;100.00
54270;BME280;40181;51.560;13.000;2023-04-01T02:08:31;98859.41;;;8.83;100.00
54270;BME280;40181;51.560;13.000;2023-04-01T02:11:05;98858.44;;;8.97;100.00
54270;BME280;40181;51.560;13.000;2023-04-01T02:13:37;98855.81;;;8.95;100.00
54270;BME280;40181;51.560;13.000;2023-04-01T02:16:12;98864.56;;;8.96;100.00
54270;BME280;40181;51.560;13.000;2023-04-01T02:18:44;98858.41;;;9.02;100.00
54270;BME280;40181;51.560;13.000;2023-04-01T02:21:20;98867.94;;;9.09;100.00
54270;BME280;40181;51.560;13.000;2023-04-01T02:23:52;98876.00;;;8.82;100.00
54270;BME280;40181;51.560;13.000;2023-04-01T02:26:24;98869.81;;;8.94;100.00
54270;BME280;40181;51.560;13.000;2023-04-01T02:28:54;98873.34;;;8.87;100.00
54270;BME280;40181;51.560;13.000;2023-04-01T02:31:25;98867.13;;;9.02;100.00
54270;BME280;40181;51.560;13.000;2023-04-01T02:33:54;98862.03;;;8.79;100.00
54270;BME280;40181;51.560;13.000;2023-04-01T02:36:26;98867.19;;;8.96;100.00
54270;BME280;40181;51.560;13.000;2023-04-01T02:38:55;98868.16;;;8.78;100.00
54270;BME280;40181;51.560;13.000;2023-04-01T02:41:28;98874.19;;;8.92;100.00
54270;BME280;40181;51.560;13.000;2023-04-01T02:43:57;98873.25;;;8.99;100.00
54270;BME280;40181;51.560;13.000;2023-04-01T02:46:26;98871.53;;;8.94;100.00
54270;BME280;40181;51.560;13.000;2023-04-01T02:48:55;98869.78;;;8.99;100.00
54270;BME280;40181;51.560;13.000;2023-04-01T02:51:27;98870.66;;;8.96;100.00
54270;BME280;40181;51.560;13.000;2023-04-01T02:53:56;98872.44;;;8.94;100.00
54270;BME280;40181;51.560;13.000;2023-04-01T02:56:26;98874.09;;;9.03;100.00
54270;BME280;40181;51.560;13.000;2023-04-01T02:58:55;98880.13;;;9.15;100.00
54270;BME280;40181;51.560;13.000;2023-04-01T03:01:24;98884.88;;;8.56;100.00
54270;BME280;40181;51.560;13.000;2023-04-01T03:03:53;98879.44;;;8.89;100.00
54270;BME280;40181;51.560;13.000;2023-04-01T03:06:22;98887.34;;;8.83;100.00
54270;BME280;40181;51.560;13.000;2023-04-01T03:08:54;98880.34;;;8.82;100.00
54270;BME280;40181;51.560;13.000;2023-04-01T03:11:23;98889.88;;;8.97;100.00
54270;BME280;40181;51.560;13.000;2023-04-01T03:13:52;98887.25;;;8.94;100.00
54270;BME280;40181;51.560;13.000;2023-04-01T03:16:21;98889.81;;;9.03;100.00
54270;BME280;40181;51.560;13.000;2023-04-01T03:18:50;98887.28;;;8.92;100.00
54270;BME280;40181;51.560;13.000;2023-04-01T03:21:23;98888.22;;;8.80;100.00
54270;BME280;40181;51.560;13.000;2023-04-01T03:23:55;98884.66;;;8.91;100.00
54270;BME280;40181;51.560;13.000;2023-04-01T03:26:24;98889.09;;;8.82;100.00
54270;BME280;40181;51.560;13.000;2023-04-01T03:28:54;98887.25;;;8.95;100.00
54270;BME280;40181;51.560;13.000;2023-04-01T03:31:23;98883.03;;;8.72;100.00
54270;BME280;40181;51.560;13.000;2023-04-01T03:33:53;98887.28;;;8.89;100.00
54270;BME280;40181;51.560;13.000;2023-04-01T03:36:22;98888.13;;;8.93;100.00
54270;BME280;40181;51.560;13.000;2023-04-01T03:38:51;98895.19;;;8.80;100.00
54270;BME280;40181;51.560;13.000;2023-04-01T03:41:22;98891.72;;;8.79;100.00
54270;BME280;40181;51.560;13.000;2023-04-01T03:43:53;98896.81;;;9.03;100.00
54270;BME280;40181;51.560;13.000;2023-04-01T03:46:22;98896.09;;;8.80;100.00
54270;BME280;40181;51.560;13.000;2023-04-01T03:48:51;98897.81;;;8.81;100.00
54270;BME280;40181;51.560;13.000;2023-04-01T03:51:20;98897.72;;;8.97;100.00
54270;BME280;40181;51.560;13.000;2023-04-01T03:53:49;98895.91;;;9.07;100.00
54270;BME280;40181;51.560;13.000;2023-04-01T03:56:18;98909.00;;;9.10;100.00
54270;BME280;40181;51.560;13.000;2023-04-01T03:58:50;98910.75;;;9.03;100.00
54270;BME280;40181;51.560;13.000;2023-04-01T04:01:20;98898.66;;;8.86;100.00
54270;BME280;40181;51.560;13.000;2023-04-01T04:03:50;98903.84;;;8.96;100.00
54270;BME280;40181;51.560;13.000;2023-04-01T04:06:19;98906.47;;;8.94;100.00
54270;BME280;40181;51.560;13.000;2023-04-01T04:08:49;98908.34;;;8.70;100.00
54270;BME280;40181;51.560;13.000;2023-04-01T04:11:18;98922.25;;;8.83;100.00
54270;BME280;40181;51.560;13.000;2023-04-01T04:13:51;98908.28;;;8.88;100.00
54270;BME280;40181;51.560;13.000;2023-04-01T04:16:20;98910.81;;;8.97;100.00
54270;BME280;40181;51.560;13.000;2023-04-01T04:18:49;98912.56;;;8.95;100.00
54270;BME280;40181;51.560;13.000;2023-04-01T04:21:18;98911.72;;;8.94;100.00
54270;BME280;40181;51.560;13.000;2023-04-01T04:23:47;98916.03;;;9.02;100.00
54270;BME280;40181;51.560;13.000;2023-04-01T04:26:17;98914.19;;;9.15;100.00
54270;BME280;40181;51.560;13.000;2023-04-01T04:28:48;98933.41;;;9.10;100.00
54270;BME280;40181;51.560;13.000;2023-04-01T04:31:19;98923.91;;;8.94;100.00
54270;BME280;40181;51.560;13.000;2023-04-01T04:33:48;98932.72;;;8.83;100.00
54270;BME280;40181;51.560;13.000;2023-04-01T04:36:17;98932.72;;;8.85;100.00
54270;BME280;40181;51.560;13.000;2023-04-01T04:38:47;98937.19;;;8.69;100.00
54270;BME280;40181;51.560;13.000;2023-04-01T04:41:18;98931.84;;;8.84;100.00
54270;BME280;40181;51.560;13.000;2023-04-01T04:43:55;98932.66;;;8.93;100.00
54270;BME280;40181;51.560;13.000;2023-04-01T04:46:24;98939.78;;;8.74;100.00
54270;BME280;40181;51.560;13.000;2023-04-01T04:48:54;98939.66;;;8.89;100.00
54270;BME280;40181;51.560;13.000;2023-04-01T04:51:23;98935.25;;;8.99;100.00
54270;BME280;40181;51.560;13.000;2023-04-01T04:53:52;98937.91;;;8.94;100.00
54270;BME280;40181;51.560;13.000;2023-04-01T04:56:22;98938.78;;;8.92;100.00
54270;BME280;40181;51.560;13.000;2023-04-01T04:58:55;98944.03;;;8.87;100.00
54270;BME280;40181;51.560;13.000;2023-04-01T05:01:24;98943.16;;;8.88;100.00
54270;BME280;40181;51.560;13.000;2023-04-01T05:03:54;98948.47;;;8.74;100.00
54270;BME280;40181;51.560;13.000;2023-04-01T05:06:23;98951.97;;;8.79;100.00
54270;BME280;40181;51.560;13.000;2023-04-01T05:08:55;98949.38;;;8.75;100.00
54270;BME280;40181;51.560;13.000;2023-04-01T05:11:24;98945.78;;;8.86;100.00
54270;BME280;40181;51.560;13.000;2023-04-01T05:13:56;98953.63;;;8.94;100.00
54270;BME280;40181;51.560;13.000;2023-04-01T05:16:25;98951.00;;;8.96;100.00
54270;BME280;40181;51.560;13.000;2023-04-01T05:18:55;98950.91;;;9.07;100.00
54270;BME280;40181;51.560;13.000;2023-04-01T05:21:24;98952.91;;;8.60;100.00
54270;BME280;40181;51.560;13.000;2023-04-01T05:23:53;98956.28;;;8.85;100.00
54270;BME280;40181;51.560;13.000;2023-04-01T05:26:21;98957.25;;;8.65;100.00
54270;BME280;40181;51.560;13.000;2023-04-01T05:28:50;98952.88;;;8.66;100.00
54270;BME280;40181;51.560;13.000;2023-04-01T05:31:22;98962.34;;;8.90;100.00
54270;BME280;40181;51.560;13.000;2023-04-01T05:33:51;98958.97;;;8.69;100.00
54270;BME280;40181;51.560;13.000;2023-04-01T05:36:21;98962.38;;;8.87;100.00
54270;BME280;40181;51.560;13.000;2023-04-01T05:38:50;98965.03;;;8.82;100.00
54270;BME280;40181;51.560;13.000;2023-04-01T05:41:22;98965.97;;;8.69;100.00
54270;BME280;40181;51.560;13.000;2023-04-01T05:43:51;98963.34;;;8.64;100.00
54270;BME280;40181;51.560;13.000;2023-04-01T05:46:23;98961.50;;;8.88;100.00
54270;BME280;40181;51.560;13.000;2023-04-01T05:48:52;98967.63;;;8.81;100.00
54270;BME280;40181;51.560;13.000;2023-04-01T05:51:21;98975.47;;;8.87;100.00
54270;BME280;40181;51.560;13.000;2023-04-01T05:53:50;98964.19;;;8.68;100.00
54270;BME280;40181;51.560;13.000;2023-04-01T05:56:19;98967.59;;;8.93;100.00
54270;BME280;40181;51.560;13.000;2023-04-01T05:58:51;98974.59;;;8.90;100.00
54270;BME280;40181;51.560;13.000;2023-04-01T06:01:24;98966.81;;;8.76;100.00
54270;BME280;40181;51.560;13.000;2023-04-01T06:03:53;98962.31;;;8.95;100.00
54270;BME280;40181;51.560;13.000;2023-04-01T06:06:25;98978.09;;;8.81;100.00
54270;BME280;40181;51.560;13.000;2023-04-01T06:08:57;98980.66;;;8.98;100.00
54270;BME280;40181;51.560;13.000;2023-04-01T06:11:36;98977.22;;;8.86;100.00
54270;BME280;40181;51.560;13.000;2023-04-01T06:14:21;98975.47;;;8.87;100.00
54270;BME280;40181;51.560;13.000;2023-04-01T06:17:09;98977.22;;;8.85;100.00
54270;BME280;40181;51.560;13.000;2023-04-01T06:19:50;98981.56;;;8.91;100.00
54270;BME280;40181;51.560;13.000;2023-04-01T06:22:42;98992.91;;;8.91;100.00
54270;BME280;40181;51.560;13.000;2023-04-01T06:25:42;99001.69;;;8.78;100.00
54270;BME280;40181;51.560;13.000;2023-04-01T06:28:43;98989.44;;;8.88;100.00
54270;BME280;40181;51.560;13.000;2023-04-01T06:31:36;98988.50;;;8.99;100.00
54270;BME280;40181;51.560;13.000;2023-04-01T06:34:27;98998.06;;;9.07;100.00
54270;BME280;40181;51.560;13.000;2023-04-01T06:37:14;99000.75;;;8.93;100.00
54270;BME280;40181;51.560;13.000;2023-04-01T06:40:05;98993.84;;;8.76;100.00
54270;BME280;40181;51.560;13.000;2023-04-01T06:43:01;98999.00;;;8.92;100.00
54270;BME280;40181;51.560;13.000;2023-04-01T06:45:40;99002.41;;;9.08;100.00
54270;BME280;40181;51.560;13.000;2023-04-01T06:48:30;99002.34;;;9.23;100.00
54270;BME280;40181;51.560;13.000;2023-04-01T06:51:22;99005.81;;;9.27;100.00
54270;BME280;40181;51.560;13.000;2023-04-01T06:54:03;98998.81;;;9.31;100.00
54270;BME280;40181;51.560;13.000;2023-04-01T06:56:37;99005.84;;;9.22;100.00
54270;BME280;40181;51.560;13.000;2023-04-01T06:59:13;99004.91;;;9.26;100.00
54270;BME280;40181;51.560;13.000;2023-04-01T07:01:47;98996.31;;;9.06;100.00
54270;BME280;40181;51.560;13.000;2023-04-01T07:04:20;99000.66;;;9.11;100.00
54270;BME280;40181;51.560;13.000;2023-04-01T07:06:57;99010.19;;;9.22;100.00
54270;BME280;40181;51.560;13.000;2023-04-01T07:09:32;99011.09;;;9.19;100.00
54270;BME280;40181;51.560;13.000;2023-04-01T07:12:10;99005.78;;;9.32;100.00
54270;BME280;40181;51.560;13.000;2023-04-01T07:14:43;99003.16;;;9.30;100.00
54270;BME280;40181;51.560;13.000;2023-04-01T07:17:16;99005.66;;;9.50;100.00
54270;BME280;40181;51.560;13.000;2023-04-01T07:19:51;99006.63;;;9.35;100.00
54270;BME280;40181;51.560;13.000;2023-04-01T07:22:29;99013.53;;;9.44;100.00
54270;BME280;40181;51.560;13.000;2023-04-01T07:25:04;99007.41;;;9.47;100.00
54270;BME280;40181;51.560;13.000;2023-04-01T07:27:39;99015.41;;;9.28;100.00
54270;BME280;40181;51.560;13.000;2023-04-01T07:30:14;99015.28;;;9.45;100.00
54270;BME280;40181;51.560;13.000;2023-04-01T07:32:47;99017.97;;;9.39;100.00
54270;BME280;40181;51.560;13.000;2023-04-01T07:35:27;99020.63;;;9.34;100.00
54270;BME280;40181;51.560;13.000;2023-04-01T07:38:10;99025.94;;;9.17;100.00
54270;BME280;40181;51.560;13.000;2023-04-01T07:40:48;99038.09;;;9.37;100.00
54270;BME280;40181;51.560;13.000;2023-04-01T07:43:45;99024.09;;;9.38;100.00
54270;BME280;40181;51.560;13.000;2023-04-01T07:46:34;99027.53;;;9.45;100.00
54270;BME280;40181;51.560;13.000;2023-04-01T07:49:14;99042.41;;;9.43;100.00
54270;BME280;40181;51.560;13.000;2023-04-01T07:51:50;99038.13;;;9.24;100.00
54270;BME280;40181;51.560;13.000;2023-04-01T07:54:32;99037.09;;;9.49;100.00
54270;BME280;40181;51.560;13.000;2023-04-01T07:57:09;99038.88;;;9.47;100.00
54270;BME280;40181;51.560;13.000;2023-04-01T07:59:50;99045.88;;;9.43;100.00
54270;BME280;40181;51.560;13.000;2023-04-01T08:02:34;99034.41;;;9.60;100.00
54270;BME280;40181;51.560;13.000;2023-04-01T08:05:18;99043.03;;;9.76;100.00
54270;BME280;40181;51.560;13.000;2023-04-01T08:07:58;99047.50;;;9.66;100.00
54270;BME280;40181;51.560;13.000;2023-04-01T08:10:40;99050.91;;;9.79;100.00
54270;BME280;40181;51.560;13.000;2023-04-01T08:13:21;99044.81;;;9.72;100.00
54270;BME280;40181;51.560;13.000;2023-04-01T08:16:06;99048.09;;;9.99;100.00
54270;BME280;40181;51.560;13.000;2023-04-01T08:18:43;99060.41;;;9.95;100.00
54270;BME280;40181;51.560;13.000;2023-04-01T08:21:20;99061.19;;;10.02;100.00
54270;BME280;40181;51.560;13.000;2023-04-01T08:23:52;99063.09;;;9.83;100.00
54270;BME280;40181;51.560;13.000;2023-04-01T08:26:32;99057.03;;;9.76;100.00
54270;BME280;40181;51.560;13.000;2023-04-01T08:29:09;99058.72;;;9.82;100.00
54270;BME280;40181;51.560;13.000;2023-04-01T08:31:46;99056.84;;;10.00;100.00
54270;BME280;40181;51.560;13.000;2023-04-01T08:34:20;99063.09;;;9.86;100.00
54270;BME280;40181;51.560;13.000;2023-04-01T08:36:53;99058.63;;;9.96;100.00
54270;BME280;40181;51.560;13.000;2023-04-01T08:39:29;99068.06;;;10.17;99.46
54270;BME280;40181;51.560;13.000;2023-04-01T08:42:16;99062.63;;;10.37;99.71
54270;BME280;40181;51.560;13.000;2023-04-01T08:45:28;99059.25;;;10.23;98.28
54270;BME280;40181;51.560;13.000;2023-04-01T08:48:42;99055.53;;;10.50;98.40
54270;BME280;40181;51.560;13.000;2023-04-01T08:54:46;99060.00;;;10.37;96.41
54270;BME280;40181;51.560;13.000;2023-04-01T08:57:37;99067.84;;;10.45;94.92
54270;BME280;40181;51.560;13.000;2023-04-01T09:00:18;99067.84;;;10.39;95.02
54270;BME280;40181;51.560;13.000;2023-04-01T09:03:20;99056.50;;;10.37;94.13
54270;BME280;40181;51.560;13.000;2023-04-01T09:06:22;99064.09;;;10.68;95.16
54270;BME280;40181;51.560;13.000;2023-04-01T09:09:30;99058.75;;;10.77;94.80
54270;BME280;40181;51.560;13.000;2023-04-01T09:12:38;99064.91;;;10.75;93.10
54270;BME280;40181;51.560;13.000;2023-04-01T09:15:45;99056.19;;;10.70;92.56
54270;BME280;40181;51.560;13.000;2023-04-01T09:18:51;99063.78;;;10.93;92.14
54270;BME280;40181;51.560;13.000;2023-04-01T09:21:52;99060.19;;;11.03;91.57
54270;BME280;40181;51.560;13.000;2023-04-01T09:25:01;99069.88;;;10.98;91.82
54270;BME280;40181;51.560;13.000;2023-04-01T09:27:57;99071.50;;;11.10;92.11
54270;BME280;40181;51.560;13.000;2023-04-01T09:30:48;99059.97;;;11.19;90.35
54270;BME280;40181;51.560;13.000;2023-04-01T09:34:19;99081.34;;;10.92;91.09
54270;BME280;40181;51.560;13.000;2023-04-01T09:37:08;99070.59;;;11.10;90.44
54270;BME280;40181;51.560;13.000;2023-04-01T09:40:00;99089.94;;;11.05;89.12
54270;BME280;40181;51.560;13.000;2023-04-01T09:42:45;99075.53;;;11.36;90.46
54270;BME280;40181;51.560;13.000;2023-04-01T09:45:41;99068.47;;;11.40;89.63
54270;BME280;40181;51.560;13.000;2023-04-01T09:48:24;99082.06;;;11.02;90.46
54270;BME280;40181;51.560;13.000;2023-04-01T09:51:23;99086.25;;;11.19;90.02
54270;BME280;40181;51.560;13.000;2023-04-01T09:54:07;99078.88;;;11.46;87.94
54270;BME280;40181;51.560;13.000;2023-04-01T09:56:57;99084.31;;;11.35;86.19
54270;BME280;40181;51.560;13.000;2023-04-01T10:00:13;99082.47;;;11.42;86.94
54270;BME280;40181;51.560;13.000;2023-04-01T10:03:07;99081.31;;;11.60;86.61
54270;BME280;40181;51.560;13.000;2023-04-01T10:09:33;99071.56;;;11.68;86.02
54270;BME280;40181;51.560;13.000;2023-04-01T10:12:31;99092.72;;;11.59;84.97
54270;BME280;40181;51.560;13.000;2023-04-01T10:18:34;99079.47;;;12.23;82.29
54270;BME280;40181;51.560;13.000;2023-04-01T10:21:37;99068.84;;;12.31;82.22
54270;BME280;40181;51.560;13.000;2023-04-01T10:24:38;99082.44;;;12.01;82.00
54270;BME280;40181;51.560;13.000;2023-04-01T10:28:08;99059.06;;;12.36;80.13
54270;BME280;40181;51.560;13.000;2023-04-01T10:37:57;99069.53;;;12.86;78.86
54270;BME280;40181;51.560;13.000;2023-04-01T10:40:56;99084.13;;;12.61;78.62
54270;BME280;40181;51.560;13.000;2023-04-01T10:44:04;99090.72;;;12.33;80.74
54270;BME280;40181;51.560;13.000;2023-04-01T10:47:31;99088.19;;;12.28;81.89
54270;BME280;40181;51.560;13.000;2023-04-01T10:50:53;99084.13;;;12.61;80.84
54270;BME280;40181;51.560;13.000;2023-04-01T10:54:21;99090.63;;;12.39;80.80
54270;BME280;40181;51.560;13.000;2023-04-01T10:57:37;99086.69;;;12.12;81.82
54270;BME280;40181;51.560;13.000;2023-04-01T11:00:50;99085.13;;;12.52;81.26
54270;BME280;40181;51.560;13.000;2023-04-01T11:04:16;99097.88;;;12.26;79.60
54270;BME280;40181;51.560;13.000;2023-04-01T11:07:27;99089.69;;;12.42;78.03
54270;BME280;40181;51.560;13.000;2023-04-01T11:10:38;99102.66;;;12.54;76.59
54270;BME280;40181;51.560;13.000;2023-04-01T11:17:08;99091.78;;;12.71;76.02
54270;BME280;40181;51.560;13.000;2023-04-01T11:20:16;99090.56;;;12.44;78.05
54270;BME280;40181;51.560;13.000;2023-04-01T11:23:09;99098.03;;;12.17;81.53
54270;BME280;40181;51.560;13.000;2023-04-01T11:25:59;99088.28;;;12.22;85.61
54270;BME280;40181;51.560;13.000;2023-04-01T11:28:44;99090.81;;;12.30;82.79
54270;BME280;40181;51.560;13.000;2023-04-01T11:31:35;99087.22;;;12.32;84.03
54270;BME280;40181;51.560;13.000;2023-04-01T11:34:37;99087.03;;;12.45;83.10
54270;BME280;40181;51.560;13.000;2023-04-01T11:37:29;99098.25;;;12.55;80.54
54270;BME280;40181;51.560;13.000;2023-04-01T11:40:15;99093.13;;;12.94;77.32
54270;BME280;40181;51.560;13.000;2023-04-01T11:42:55;99092.97;;;13.02;77.29
54270;BME280;40181;51.560;13.000;2023-04-01T11:45:36;99095.75;;;12.94;75.73
54270;BME280;40181;51.560;13.000;2023-04-01T11:48:32;99096.66;;;12.93;75.16
54270;BME280;40181;51.560;13.000;2023-04-01T11:51:38;99097.81;;;13.24;74.20
54270;BME280;40181;51.560;13.000;2023-04-01T11:54:47;99107.59;;;12.71;75.29
54270;BME280;40181;51.560;13.000;2023-04-01T11:57:40;99097.13;;;13.14;75.80
54270;BME280;40181;51.560;13.000;2023-04-01T12:00:18;99095.03;;;12.86;75.15
54270;BME280;40181;51.560;13.000;2023-04-01T12:03:06;99124.38;;;12.67;76.41
54270;BME280;40181;51.560;13.000;2023-04-01T12:05:44;99113.31;;;12.95;77.41
54270;BME280;40181;51.560;13.000;2023-04-01T12:08:28;99115.75;;;12.59;77.58
54270;BME280;40181;51.560;13.000;2023-04-01T12:11:09;99119.84;;;12.74;77.67
54270;BME280;40181;51.560;13.000;2023-04-01T12:13:53;99115.09;;;12.44;81.03
54270;BME280;40181;51.560;13.000;2023-04-01T12:16:41;99123.06;;;12.43;82.35
54270;BME280;40181;51.560;13.000;2023-04-01T12:19:23;99120.25;;;12.52;80.55
54270;BME280;40181;51.560;13.000;2023-04-01T12:22:19;99130.28;;;12.30;82.76
54270;BME280;40181;51.560;13.000;2023-04-01T12:25:04;99142.19;;;11.96;81.79
54270;BME280;40181;51.560;13.000;2023-04-01T12:27:56;99130.47;;;12.19;82.98
54270;BME280;40181;51.560;13.000;2023-04-01T12:30:48;99130.47;;;12.17;80.64
54270;BME280;40181;51.560;13.000;2023-04-01T12:36:45;99142.84;;;12.66;79.55
54270;BME280;40181;51.560;13.000;2023-04-01T12:39:33;99134.94;;;12.66;79.02
54270;BME280;40181;51.560;13.000;2023-04-01T12:42:35;99147.84;;;12.29;79.18
54270;BME280;40181;51.560;13.000;2023-04-01T12:45:28;99139.38;;;12.64;77.14
54270;BME280;40181;51.560;13.000;2023-04-01T12:51:21;99139.63;;;12.48;77.90
54270;BME280;40181;51.560;13.000;2023-04-01T12:57:25;99131.72;;;12.50;79.01
54270;BME280;40181;51.560;13.000;2023-04-01T13:00:23;99137.31;;;12.81;78.03
54270;BME280;40181;51.560;13.000;2023-04-01T13:03:12;99144.53;;;12.70;78.83
54270;BME280;40181;51.560;13.000;2023-04-01T13:06:23;99145.16;;;12.83;77.71
54270;BME280;40181;51.560;13.000;2023-04-01T13:09:25;99145.03;;;12.91;77.87
54270;BME280;40181;51.560;13.000;2023-04-01T13:12:14;99151.94;;;12.96;79.13
54270;BME280;40181;51.560;13.000;2023-04-01T13:15:10;99153.06;;;12.83;77.97
54270;BME280;40181;51.560;13.000;2023-04-01T13:17:51;99148.56;;;12.90;76.79
54270;BME280;40181;51.560;13.000;2023-04-01T13:20:33;99148.75;;;12.80;76.17
54270;BME280;40181;51.560;13.000;2023-04-01T13:23:31;99153.78;;;12.93;76.38
54270;BME280;40181;51.560;13.000;2023-04-01T13:26:12;99163.47;;;12.91;76.01
54270;BME280;40181;51.560;13.000;2023-04-01T13:28:50;99160.78;;;12.94;75.70
54270;BME280;40181;51.560;13.000;2023-04-01T13:31:37;99176.69;;;12.89;78.56
54270;BME280;40181;51.560;13.000;2023-04-01T13:34:21;99162.91;;;12.73;82.64
54270;BME280;40181;51.560;13.000;2023-04-01T13:37:24;99184.09;;;12.12;84.93
54270;BME280;40181;51.560;13.000;2023-04-01T13:40:22;99187.56;;;11.48;89.63
54270;BME280;40181;51.560;13.000;2023-04-01T13:43:02;99188.84;;;11.13;93.63
54270;BME280;40181;51.560;13.000;2023-04-01T13:45:43;99183.97;;;11.55;95.38
54270;BME280;40181;51.560;13.000;2023-04-01T13:48:31;99184.94;;;11.48;97.54
54270;BME280;40181;51.560;13.000;2023-04-01T13:51:17;99189.66;;;11.21;95.37
54270;BME280;40181;51.560;13.000;2023-04-01T13:54:14;99187.81;;;11.26;95.77
54270;BME280;40181;51.560;13.000;2023-04-01T13:57:11;99194.53;;;11.51;92.52
54270;BME280;40181;51.560;13.000;2023-04-01T14:00:17;99188.31;;;11.58;92.48
54270;BME280;40181;51.560;13.000;2023-04-01T14:03:12;99195.66;;;11.32;93.86
54270;BME280;40181;51.560;13.000;2023-04-01T14:06:05;99187.81;;;11.28;94.53
54270;BME280;40181;51.560;13.000;2023-04-01T14:08:51;99192.03;;;11.41;94.26
54270;BME280;40181;51.560;13.000;2023-04-01T14:11:33;99194.75;;;11.33;94.50
54270;BME280;40181;51.560;13.000;2023-04-01T14:14:18;99202.41;;;11.52;93.22
54270;BME280;40181;51.560;13.000;2023-04-01T14:17:05;99199.16;;;11.30;92.92
54270;BME280;40181;51.560;13.000;2023-04-01T14:19:53;99195.31;;;11.60;91.94
54270;BME280;40181;51.560;13.000;2023-04-01T14:22:43;99204.81;;;11.69;91.94
54270;BME280;40181;51.560;13.000;2023-04-01T14:25:33;99202.91;;;11.82;89.68
54270;BME280;40181;51.560;13.000;2023-04-01T14:28:24;99206.28;;;11.92;88.79
54270;BME280;40181;51.560;13.000;2023-04-01T14:31:23;99196.69;;;11.88;88.25
54270;BME280;40181;51.560;13.000;2023-04-01T14:34:06;99194.03;;;11.91;89.85
54270;BME280;40181;51.560;13.000;2023-04-01T14:37:00;99205.16;;;12.10;88.14
54270;BME280;40181;51.560;13.000;2023-04-01T14:39:59;99201.75;;;12.07;87.79
54270;BME280;40181;51.560;13.000;2023-04-01T14:43:01;99197.22;;;12.15;88.25